sensor_id;sensor_type;location;lat;lon;timestamp;temperature;humidity
14061;DHT22;7105;43.616;1.434;2023-08-24T00:02:02;31.80;99.90
14061;DHT22;7105;43.616;1.434;2023-08-24T00:04:28;31.70;99.90
14061;DHT22;7105;43.616;1.434;2023-08-24T00:06:54;31.70;99.90
14061;DHT22;7105;43.616;1.434;2023-08-24T00:09:20;31.60;99.90
14061;DHT22;7105;43.616;1.434;2023-08-24T00:11:46;31.60;99.90
14061;DHT22;7105;43.616;1.434;2023-08-24T00:14:12;31.50;99.90
14061;DHT22;7105;43.616;1.434;2023-08-24T00:16:38;31.50;99.90
14061;DHT22;7105;43.616;1.434;2023-08-24T00:19:04;31.50;99.90
14061;DHT22;7105;43.616;1.434;2023-08-24T00:21:30;31.50;99.90
14061;DHT22;7105;43.616;1.434;2023-08-24T00:23:56;31.40;99.90
14061;DHT22;7105;43.616;1.434;2023-08-24T00:26:21;31.40;99.90
14061;DHT22;7105;43.616;1.434;2023-08-24T00:28:47;31.40;99.90
14061;DHT22;7105;43.616;1.434;2023-08-24T00:31:15;31.30;99.90
14061;DHT22;7105;43.616;1.434;2023-08-24T00:33:41;31.10;99.90
14061;DHT22;7105;43.616;1.434;2023-08-24T00:36:07;31.10;99.90
14061;DHT22;7105;43.616;1.434;2023-08-24T00:38:33;31.20;99.90
14061;DHT22;7105;43.616;1.434;2023-08-24T00:40:59;31.10;99.90
14061;DHT22;7105;43.616;1.434;2023-08-24T00:43:26;31.10;99.90
14061;DHT22;7105;43.616;1.434;2023-08-24T00:45:52;31.00;99.90
14061;DHT22;7105;43.616;1.434;2023-08-24T00:48:19;31.00;99.90
14061;DHT22;7105;43.616;1.434;2023-08-24T00:50:46;31.00;99.90
14061;DHT22;7105;43.616;1.434;2023-08-24T00:53:12;31.00;99.90
14061;DHT22;7105;43.616;1.434;2023-08-24T00:55:38;30.90;99.90
14061;DHT22;7105;43.616;1.434;2023-08-24T00:58:04;30.90;99.90
14061;DHT22;7105;43.616;1.434;2023-08-24T01:00:30;30.80;99.90
14061;DHT22;7105;43.616;1.434;2023-08-24T01:02:57;30.80;99.90
14061;DHT22;7105;43.616;1.434;2023-08-24T01:05:23;30.70;99.90
14061;DHT22;7105;43.616;1.434;2023-08-24T01:07:48;30.70;99.90
14061;DHT22;7105;43.616;1.434;2023-08-24T01:10:14;30.70;99.90
14061;DHT22;7105;43.616;1.434;2023-08-24T01:12:59;30.70;99.90
14061;DHT22;7105;43.616;1.434;2023-08-24T01:18:16;30.60;99.90
14061;DHT22;7105;43.616;1.434;2023-08-24T01:20:44;30.60;99.90
14061;DHT22;7105;43.616;1.434;2023-08-24T01:23:33;30.70;99.90
14061;DHT22;7105;43.616;1.434;2023-08-24T01:26:14;30.60;99.90
14061;DHT22;7105;43.616;1.434;2023-08-24T01:28:42;30.60;99.90
14061;DHT22;7105;43.616;1.434;2023-08-24T01:31:08;30.50;99.90
14061;DHT22;7105;43.616;1.434;2023-08-24T01:33:34;30.50;99.90
14061;DHT22;7105;43.616;1.434;2023-08-24T01:36:00;30.50;99.90
14061;DHT22;7105;43.616;1.434;2023-08-24T01:38:26;30.50;99.90
14061;DHT22;7105;43.616;1.434;2023-08-24T01:41:11;30.50;99.90
14061;DHT22;7105;43.616;1.434;2023-08-24T01:43:39;30.40;99.90
14061;DHT22;7105;43.616;1.434;2023-08-24T01:46:07;30.40;99.90
14061;DHT22;7105;43.616;1.434;2023-08-24T01:48:33;30.40;99.90
14061;DHT22;7105;43.616;1.434;2023-08-24T01:51:00;30.30;99.90
14061;DHT22;7105;43.616;1.434;2023-08-24T01:53:30;30.30;99.90
14061;DHT22;7105;43.616;1.434;2023-08-24T01:55:57;30.30;99.90
14061;DHT22;7105;43.616;1.434;2023-08-24T01:58:22;30.30;99.90
14061;DHT22;7105;43.616;1.434;2023-08-24T02:00:48;30.30;99.90
14061;DHT22;7105;43.616;1.434;2023-08-24T02:03:14;30.20;99.90
14061;DHT22;7105;43.616;1.434;2023-08-24T02:05:39;30.20;99.90
14061;DHT22;7105;43.616;1.434;2023-08-24T02:08:05;30.20;99.90
14061;DHT22;7105;43.616;1.434;2023-08-24T02:10:31;30.10;99.90
14061;DHT22;7105;43.616;1.434;2023-08-24T02:12:56;30.20;99.90
14061;DHT22;7105;43.616;1.434;2023-08-24T02:15:22;30.20;99.90
14061;DHT22;7105;43.616;1.434;2023-08-24T02:17:48;30.10;99.90
14061;DHT22;7105;43.616;1.434;2023-08-24T02:20:14;30.00;99.90
14061;DHT22;7105;43.616;1.434;2023-08-24T02:22:40;30.10;99.90
14061;DHT22;7105;43.616;1.434;2023-08-24T02:25:06;29.90;99.90
14061;DHT22;7105;43.616;1.434;2023-08-24T02:27:33;29.90;99.90
14061;DHT22;7105;43.616;1.434;2023-08-24T02:29:58;30.00;99.90
14061;DHT22;7105;43.616;1.434;2023-08-24T02:32:24;30.00;99.90
14061;DHT22;7105;43.616;1.434;2023-08-24T02:34:50;29.90;99.90
14061;DHT22;7105;43.616;1.434;2023-08-24T02:37:15;29.90;99.90
14061;DHT22;7105;43.616;1.434;2023-08-24T02:39:41;29.90;99.90
14061;DHT22;7105;43.616;1.434;2023-08-24T02:42:07;29.90;99.90
14061;DHT22;7105;43.616;1.434;2023-08-24T02:44:32;29.80;99.90
14061;DHT22;7105;43.616;1.434;2023-08-24T02:46:58;29.90;99.90
14061;DHT22;7105;43.616;1.434;2023-08-24T02:49:24;29.90;99.90
14061;DHT22;7105;43.616;1.434;2023-08-24T02:51:49;29.90;99.90
14061;DHT22;7105;43.616;1.434;2023-08-24T02:54:15;29.90;99.90
14061;DHT22;7105;43.616;1.434;2023-08-24T02:56:41;29.80;99.90
14061;DHT22;7105;43.616;1.434;2023-08-24T02:59:06;29.80;99.90
14061;DHT22;7105;43.616;1.434;2023-08-24T03:01:32;29.70;99.90
14061;DHT22;7105;43.616;1.434;2023-08-24T03:03:58;29.70;99.90
14061;DHT22;7105;43.616;1.434;2023-08-24T03:06:23;29.60;99.90
14061;DHT22;7105;43.616;1.434;2023-08-24T03:08:50;29.70;99.90
14061;DHT22;7105;43.616;1.434;2023-08-24T03:11:15;29.70;99.90
14061;DHT22;7105;43.616;1.434;2023-08-24T03:13:41;29.60;99.90
14061;DHT22;7105;43.616;1.434;2023-08-24T03:16:08;29.50;99.90
14061;DHT22;7105;43.616;1.434;2023-08-24T03:18:34;29.70;99.90
14061;DHT22;7105;43.616;1.434;2023-08-24T03:21:00;29.60;99.90
14061;DHT22;7105;43.616;1.434;2023-08-24T03:23:26;29.50;99.90
14061;DHT22;7105;43.616;1.434;2023-08-24T03:25:52;29.50;99.90
14061;DHT22;7105;43.616;1.434;2023-08-24T03:28:18;29.50;99.90
14061;DHT22;7105;43.616;1.434;2023-08-24T03:30:50;29.50;99.90
14061;DHT22;7105;43.616;1.434;2023-08-24T03:33:16;29.40;99.90
14061;DHT22;7105;43.616;1.434;2023-08-24T03:35:42;29.40;99.90
14061;DHT22;7105;43.616;1.434;2023-08-24T03:38:08;29.40;99.90
14061;DHT22;7105;43.616;1.434;2023-08-24T03:40:34;29.40;99.90
14061;DHT22;7105;43.616;1.434;2023-08-24T03:43:01;29.30;99.90
14061;DHT22;7105;43.616;1.434;2023-08-24T03:45:27;29.30;99.90
14061;DHT22;7105;43.616;1.434;2023-08-24T03:47:53;29.30;99.90
14061;DHT22;7105;43.616;1.434;2023-08-24T03:50:19;29.30;99.90
14061;DHT22;7105;43.616;1.434;2023-08-24T03:52:44;29.10;99.90
14061;DHT22;7105;43.616;1.434;2023-08-24T03:55:10;29.10;99.90
14061;DHT22;7105;43.616;1.434;2023-08-24T03:57:36;29.10;99.90
14061;DHT22;7105;43.616;1.434;2023-08-24T04:00:04;29.00;99.90
14061;DHT22;7105;43.616;1.434;2023-08-24T04:02:32;29.00;99.90
14061;DHT22;7105;43.616;1.434;2023-08-24T04:04:58;28.90;99.90
14061;DHT22;7105;43.616;1.434;2023-08-24T04:07:23;29.00;99.90
14061;DHT22;7105;43.616;1.434;2023-08-24T04:09:49;29.00;99.90
14061;DHT22;7105;43.616;1.434;2023-08-24T04:12:15;29.00;99.90
14061;DHT22;7105;43.616;1.434;2023-08-24T04:14:40;29.00;99.90
14061;DHT22;7105;43.616;1.434;2023-08-24T04:17:06;28.90;99.90
14061;DHT22;7105;43.616;1.434;2023-08-24T04:19:32;28.80;99.90
14061;DHT22;7105;43.616;1.434;2023-08-24T04:21:57;28.90;99.90
14061;DHT22;7105;43.616;1.434;2023-08-24T04:24:23;28.90;99.90
14061;DHT22;7105;43.616;1.434;2023-08-24T04:26:50;28.80;99.90
14061;DHT22;7105;43.616;1.434;2023-08-24T04:29:17;28.80;99.90
14061;DHT22;7105;43.616;1.434;2023-08-24T04:31:42;28.90;99.90
14061;DHT22;7105;43.616;1.434;2023-08-24T04:34:08;28.90;99.90
14061;DHT22;7105;43.616;1.434;2023-08-24T04:36:34;28.80;99.90
14061;DHT22;7105;43.616;1.434;2023-08-24T04:39:00;28.80;99.90
14061;DHT22;7105;43.616;1.434;2023-08-24T04:41:27;28.70;99.90
14061;DHT22;7105;43.616;1.434;2023-08-24T04:43:53;28.70;99.90
14061;DHT22;7105;43.616;1.434;2023-08-24T04:46:20;28.70;99.90
14061;DHT22;7105;43.616;1.434;2023-08-24T04:48:45;28.60;99.90
14061;DHT22;7105;43.616;1.434;2023-08-24T04:51:11;28.60;99.90
14061;DHT22;7105;43.616;1.434;2023-08-24T04:53:37;28.60;99.90
14061;DHT22;7105;43.616;1.434;2023-08-24T04:56:02;28.60;99.90
14061;DHT22;7105;43.616;1.434;2023-08-24T04:58:28;28.70;99.90
14061;DHT22;7105;43.616;1.434;2023-08-24T05:00:54;28.60;99.90
14061;DHT22;7105;43.616;1.434;2023-08-24T05:03:21;28.60;99.90
14061;DHT22;7105;43.616;1.434;2023-08-24T05:05:47;28.60;99.90
14061;DHT22;7105;43.616;1.434;2023-08-24T05:08:13;28.60;99.90
14061;DHT22;7105;43.616;1.434;2023-08-24T05:10:38;28.60;99.90
14061;DHT22;7105;43.616;1.434;2023-08-24T05:13:04;28.60;99.90
14061;DHT22;7105;43.616;1.434;2023-08-24T05:15:30;28.60;99.90
14061;DHT22;7105;43.616;1.434;2023-08-24T05:17:56;28.60;99.90
14061;DHT22;7105;43.616;1.434;2023-08-24T05:20:28;28.60;99.90
14061;DHT22;7105;43.616;1.434;2023-08-24T05:22:54;28.60;99.90
14061;DHT22;7105;43.616;1.434;2023-08-24T05:25:21;28.70;99.90
14061;DHT22;7105;43.616;1.434;2023-08-24T05:27:47;28.70;99.90
14061;DHT22;7105;43.616;1.434;2023-08-24T05:30:13;28.60;99.90
14061;DHT22;7105;43.616;1.434;2023-08-24T05:32:38;28.80;99.90
14061;DHT22;7105;43.616;1.434;2023-08-24T05:35:05;28.70;99.90
14061;DHT22;7105;43.616;1.434;2023-08-24T05:37:32;28.80;99.90
14061;DHT22;7105;43.616;1.434;2023-08-24T05:39:58;29.00;99.90
14061;DHT22;7105;43.616;1.434;2023-08-24T05:42:24;28.90;99.90
14061;DHT22;7105;43.616;1.434;2023-08-24T05:44:50;29.00;99.90
14061;DHT22;7105;43.616;1.434;2023-08-24T05:47:15;29.00;99.90
14061;DHT22;7105;43.616;1.434;2023-08-24T05:49:41;29.20;99.90
14061;DHT22;7105;43.616;1.434;2023-08-24T05:52:07;29.10;99.90
14061;DHT22;7105;43.616;1.434;2023-08-24T05:54:32;29.20;99.90
14061;DHT22;7105;43.616;1.434;2023-08-24T05:56:58;29.20;99.90
14061;DHT22;7105;43.616;1.434;2023-08-24T05:59:27;29.40;99.90
14061;DHT22;7105;43.616;1.434;2023-08-24T06:01:52;29.50;99.90
14061;DHT22;7105;43.616;1.434;2023-08-24T06:04:18;29.70;99.90
14061;DHT22;7105;43.616;1.434;2023-08-24T06:06:47;29.50;99.90
14061;DHT22;7105;43.616;1.434;2023-08-24T06:09:13;29.60;99.90
14061;DHT22;7105;43.616;1.434;2023-08-24T06:11:40;29.70;99.90
14061;DHT22;7105;43.616;1.434;2023-08-24T06:14:06;29.80;99.90
14061;DHT22;7105;43.616;1.434;2023-08-24T06:16:32;29.80;99.90
14061;DHT22;7105;43.616;1.434;2023-08-24T06:18:57;29.50;99.90
14061;DHT22;7105;43.616;1.434;2023-08-24T06:21:23;29.60;99.90
14061;DHT22;7105;43.616;1.434;2023-08-24T06:23:49;29.70;99.90
14061;DHT22;7105;43.616;1.434;2023-08-24T06:26:15;29.90;99.90
14061;DHT22;7105;43.616;1.434;2023-08-24T06:28:40;30.40;99.90
14061;DHT22;7105;43.616;1.434;2023-08-24T06:31:06;31.80;99.90
14061;DHT22;7105;43.616;1.434;2023-08-24T06:33:35;33.70;99.90
14061;DHT22;7105;43.616;1.434;2023-08-24T06:36:02;35.90;99.90
14061;DHT22;7105;43.616;1.434;2023-08-24T06:38:28;36.60;99.90
14061;DHT22;7105;43.616;1.434;2023-08-24T06:40:54;36.70;99.90
14061;DHT22;7105;43.616;1.434;2023-08-24T06:43:20;35.60;99.90
14061;DHT22;7105;43.616;1.434;2023-08-24T06:45:46;37.40;99.90
14061;DHT22;7105;43.616;1.434;2023-08-24T06:48:12;39.00;99.90
14061;DHT22;7105;43.616;1.434;2023-08-24T06:50:37;38.70;99.90
14061;DHT22;7105;43.616;1.434;2023-08-24T06:53:04;39.20;99.90
14061;DHT22;7105;43.616;1.434;2023-08-24T06:55:30;40.20;99.90
14061;DHT22;7105;43.616;1.434;2023-08-24T06:57:56;39.20;99.90
14061;DHT22;7105;43.616;1.434;2023-08-24T07:00:22;38.10;99.90
14061;DHT22;7105;43.616;1.434;2023-08-24T07:02:48;38.90;99.90
14061;DHT22;7105;43.616;1.434;2023-08-24T07:05:14;40.00;99.90
14061;DHT22;7105;43.616;1.434;2023-08-24T07:07:40;40.50;99.90
14061;DHT22;7105;43.616;1.434;2023-08-24T07:10:09;39.60;99.90
14061;DHT22;7105;43.616;1.434;2023-08-24T07:12:34;41.70;99.90
14061;DHT22;7105;43.616;1.434;2023-08-24T07:15:00;41.70;99.90
14061;DHT22;7105;43.616;1.434;2023-08-24T07:17:25;40.10;99.90
14061;DHT22;7105;43.616;1.434;2023-08-24T07:19:51;41.00;99.90
14061;DHT22;7105;43.616;1.434;2023-08-24T07:22:17;41.60;99.90
14061;DHT22;7105;43.616;1.434;2023-08-24T07:24:42;42.00;99.90
14061;DHT22;7105;43.616;1.434;2023-08-24T07:27:08;42.20;99.90
14061;DHT22;7105;43.616;1.434;2023-08-24T07:29:34;42.20;99.90
14061;DHT22;7105;43.616;1.434;2023-08-24T07:32:00;42.80;99.90
14061;DHT22;7105;43.616;1.434;2023-08-24T07:34:25;42.10;99.90
14061;DHT22;7105;43.616;1.434;2023-08-24T07:36:51;42.60;99.90
14061;DHT22;7105;43.616;1.434;2023-08-24T07:39:18;42.20;99.90
14061;DHT22;7105;43.616;1.434;2023-08-24T07:41:44;42.50;99.90
14061;DHT22;7105;43.616;1.434;2023-08-24T07:44:10;41.90;99.90
14061;DHT22;7105;43.616;1.434;2023-08-24T07:46:38;42.50;99.90
14061;DHT22;7105;43.616;1.434;2023-08-24T07:49:03;41.60;99.90
14061;DHT22;7105;43.616;1.434;2023-08-24T07:51:29;42.10;99.90
14061;DHT22;7105;43.616;1.434;2023-08-24T07:53:55;41.60;99.90
14061;DHT22;7105;43.616;1.434;2023-08-24T07:56:20;41.40;99.90
14061;DHT22;7105;43.616;1.434;2023-08-24T07:58:48;40.70;99.90
14061;DHT22;7105;43.616;1.434;2023-08-24T08:01:14;41.60;99.90
14061;DHT22;7105;43.616;1.434;2023-08-24T08:03:39;40.30;99.90
14061;DHT22;7105;43.616;1.434;2023-08-24T08:06:05;41.30;99.90
14061;DHT22;7105;43.616;1.434;2023-08-24T08:08:31;43.00;99.90
14061;DHT22;7105;43.616;1.434;2023-08-24T08:11:01;43.00;99.90
14061;DHT22;7105;43.616;1.434;2023-08-24T08:13:30;44.00;99.90
14061;DHT22;7105;43.616;1.434;2023-08-24T08:16:05;42.60;99.90
14061;DHT22;7105;43.616;1.434;2023-08-24T08:18:32;41.20;99.90
14061;DHT22;7105;43.616;1.434;2023-08-24T08:20:57;41.00;99.90
14061;DHT22;7105;43.616;1.434;2023-08-24T08:23:24;41.30;99.90
14061;DHT22;7105;43.616;1.434;2023-08-24T08:25:50;41.10;99.90
14061;DHT22;7105;43.616;1.434;2023-08-24T08:28:16;42.00;99.90
14061;DHT22;7105;43.616;1.434;2023-08-24T08:30:43;41.90;99.90
14061;DHT22;7105;43.616;1.434;2023-08-24T08:33:09;40.90;99.90
14061;DHT22;7105;43.616;1.434;2023-08-24T08:35:35;41.90;99.90
14061;DHT22;7105;43.616;1.434;2023-08-24T08:38:01;42.40;99.90
14061;DHT22;7105;43.616;1.434;2023-08-24T08:40:29;42.80;99.90
14061;DHT22;7105;43.616;1.434;2023-08-24T08:42:58;43.00;99.90
14061;DHT22;7105;43.616;1.434;2023-08-24T08:45:25;42.30;99.90
14061;DHT22;7105;43.616;1.434;2023-08-24T08:47:59;42.70;99.90
14061;DHT22;7105;43.616;1.434;2023-08-24T08:50:25;42.70;99.90
14061;DHT22;7105;43.616;1.434;2023-08-24T08:52:51;42.20;99.90
14061;DHT22;7105;43.616;1.434;2023-08-24T08:55:17;43.50;99.90
14061;DHT22;7105;43.616;1.434;2023-08-24T08:57:48;44.30;99.90
14061;DHT22;7105;43.616;1.434;2023-08-24T09:00:16;44.80;99.90
14061;DHT22;7105;43.616;1.434;2023-08-24T09:02:45;44.20;99.90
14061;DHT22;7105;43.616;1.434;2023-08-24T09:05:13;44.80;99.90
14061;DHT22;7105;43.616;1.434;2023-08-24T09:07:42;42.30;99.90
14061;DHT22;7105;43.616;1.434;2023-08-24T09:10:08;42.10;99.90
14061;DHT22;7105;43.616;1.434;2023-08-24T09:12:34;41.20;99.90
14061;DHT22;7105;43.616;1.434;2023-08-24T09:15:03;38.40;99.90
14061;DHT22;7105;43.616;1.434;2023-08-24T09:17:29;38.20;99.90
14061;DHT22;7105;43.616;1.434;2023-08-24T09:19:59;38.50;99.90
14061;DHT22;7105;43.616;1.434;2023-08-24T09:22:25;38.20;99.90
14061;DHT22;7105;43.616;1.434;2023-08-24T09:24:51;38.20;99.90
14061;DHT22;7105;43.616;1.434;2023-08-24T09:27:21;37.10;99.90
14061;DHT22;7105;43.616;1.434;2023-08-24T09:29:50;36.70;99.90
14061;DHT22;7105;43.616;1.434;2023-08-24T09:32:32;36.50;99.90
14061;DHT22;7105;43.616;1.434;2023-08-24T09:35:08;36.70;99.90
14061;DHT22;7105;43.616;1.434;2023-08-24T09:37:35;36.30;99.90
14061;DHT22;7105;43.616;1.434;2023-08-24T09:40:06;36.10;99.90
14061;DHT22;7105;43.616;1.434;2023-08-24T09:42:38;36.00;99.90
14061;DHT22;7105;43.616;1.434;2023-08-24T09:45:05;36.00;99.90
14061;DHT22;7105;43.616;1.434;2023-08-24T09:47:32;36.20;99.90
14061;DHT22;7105;43.616;1.434;2023-08-24T09:49:57;36.40;99.90
14061;DHT22;7105;43.616;1.434;2023-08-24T09:52:24;36.10;99.90
14061;DHT22;7105;43.616;1.434;2023-08-24T09:54:54;36.50;99.90
14061;DHT22;7105;43.616;1.434;2023-08-24T09:57:20;36.10;99.90
14061;DHT22;7105;43.616;1.434;2023-08-24T09:59:48;36.00;99.90
14061;DHT22;7105;43.616;1.434;2023-08-24T10:02:20;36.00;99.90
14061;DHT22;7105;43.616;1.434;2023-08-24T10:04:47;36.00;99.90
14061;DHT22;7105;43.616;1.434;2023-08-24T10:07:15;35.70;99.90
14061;DHT22;7105;43.616;1.434;2023-08-24T10:12:23;35.70;99.90
14061;DHT22;7105;43.616;1.434;2023-08-24T10:15:03;35.90;99.90
14061;DHT22;7105;43.616;1.434;2023-08-24T10:17:31;36.20;99.90
14061;DHT22;7105;43.616;1.434;2023-08-24T10:19:59;36.30;99.90
14061;DHT22;7105;43.616;1.434;2023-08-24T10:22:28;36.20;99.90
14061;DHT22;7105;43.616;1.434;2023-08-24T10:24:54;36.40;99.90
14061;DHT22;7105;43.616;1.434;2023-08-24T10:27:22;36.60;99.90
14061;DHT22;7105;43.616;1.434;2023-08-24T10:29:49;36.30;99.90
14061;DHT22;7105;43.616;1.434;2023-08-24T10:32:15;36.30;99.90
14061;DHT22;7105;43.616;1.434;2023-08-24T10:34:41;36.20;99.90
14061;DHT22;7105;43.616;1.434;2023-08-24T10:37:08;36.30;99.90
14061;DHT22;7105;43.616;1.434;2023-08-24T10:39:36;36.50;99.90
14061;DHT22;7105;43.616;1.434;2023-08-24T10:42:04;36.60;99.90
14061;DHT22;7105;43.616;1.434;2023-08-24T10:44:37;36.70;99.90
14061;DHT22;7105;43.616;1.434;2023-08-24T10:49:39;36.70;99.90
14061;DHT22;7105;43.616;1.434;2023-08-24T10:52:21;36.60;99.90
14061;DHT22;7105;43.616;1.434;2023-08-24T10:54:48;36.40;99.90
14061;DHT22;7105;43.616;1.434;2023-08-24T10:57:22;36.30;99.90
14061;DHT22;7105;43.616;1.434;2023-08-24T11:00:11;36.50;99.90
14061;DHT22;7105;43.616;1.434;2023-08-24T11:02:47;36.50;99.90
14061;DHT22;7105;43.616;1.434;2023-08-24T11:05:21;36.30;99.90
14061;DHT22;7105;43.616;1.434;2023-08-24T11:15:30;36.60;99.90
14061;DHT22;7105;43.616;1.434;2023-08-24T11:18:26;36.60;99.90
14061;DHT22;7105;43.616;1.434;2023-08-24T11:21:04;36.90;99.90
14061;DHT22;7105;43.616;1.434;2023-08-24T11:23:31;37.10;99.90
14061;DHT22;7105;43.616;1.434;2023-08-24T11:25:58;36.90;99.90
14061;DHT22;7105;43.616;1.434;2023-08-24T11:28:28;36.70;99.90
14061;DHT22;7105;43.616;1.434;2023-08-24T11:30:56;36.70;99.90
14061;DHT22;7105;43.616;1.434;2023-08-24T11:33:33;37.00;99.90
14061;DHT22;7105;43.616;1.434;2023-08-24T11:36:01;37.00;99.90
14061;DHT22;7105;43.616;1.434;2023-08-24T11:38:40;37.10;99.90
14061;DHT22;7105;43.616;1.434;2023-08-24T11:41:16;36.90;99.90
14061;DHT22;7105;43.616;1.434;2023-08-24T11:43:46;36.80;99.90
14061;DHT22;7105;43.616;1.434;2023-08-24T11:46:17;36.80;99.90
14061;DHT22;7105;43.616;1.434;2023-08-24T11:48:44;37.00;99.90
14061;DHT22;7105;43.616;1.434;2023-08-24T11:51:11;37.10;99.90
14061;DHT22;7105;43.616;1.434;2023-08-24T11:53:39;37.30;99.90
14061;DHT22;7105;43.616;1.434;2023-08-24T11:56:07;36.90;99.90
14061;DHT22;7105;43.616;1.434;2023-08-24T11:58:33;36.90;99.90
14061;DHT22;7105;43.616;1.434;2023-08-24T12:00:59;37.20;99.90
14061;DHT22;7105;43.616;1.434;2023-08-24T12:03:25;37.40;99.90
14061;DHT22;7105;43.616;1.434;2023-08-24T12:05:51;37.40;99.90
14061;DHT22;7105;43.616;1.434;2023-08-24T12:08:17;37.50;99.90
14061;DHT22;7105;43.616;1.434;2023-08-24T12:10:43;37.60;99.90
14061;DHT22;7105;43.616;1.434;2023-08-24T12:13:09;37.70;99.90
14061;DHT22;7105;43.616;1.434;2023-08-24T12:15:36;37.80;99.90
14061;DHT22;7105;43.616;1.434;2023-08-24T12:18:09;37.50;99.90
14061;DHT22;7105;43.616;1.434;2023-08-24T12:20:35;37.50;99.90
14061;DHT22;7105;43.616;1.434;2023-08-24T12:23:01;37.50;99.90
14061;DHT22;7105;43.616;1.434;2023-08-24T12:25:27;37.50;99.90
14061;DHT22;7105;43.616;1.434;2023-08-24T12:30:49;37.60;99.90
14061;DHT22;7105;43.616;1.434;2023-08-24T12:33:26;37.60;99.90
14061;DHT22;7105;43.616;1.434;2023-08-24T12:35:52;37.70;99.90
14061;DHT22;7105;43.616;1.434;2023-08-24T12:38:19;37.50;99.90
14061;DHT22;7105;43.616;1.434;2023-08-24T12:40:45;37.60;99.90
14061;DHT22;7105;43.616;1.434;2023-08-24T12:43:11;37.80;99.90
14061;DHT22;7105;43.616;1.434;2023-08-24T12:45:36;38.10;99.90
14061;DHT22;7105;43.616;1.434;2023-08-24T12:48:04;38.20;99.90
14061;DHT22;7105;43.616;1.434;2023-08-24T12:50:30;38.00;99.90
14061;DHT22;7105;43.616;1.434;2023-08-24T12:52:55;38.40;99.90
14061;DHT22;7105;43.616;1.434;2023-08-24T12:55:25;38.50;99.90
14061;DHT22;7105;43.616;1.434;2023-08-24T12:57:50;38.60;99.90
14061;DHT22;7105;43.616;1.434;2023-08-24T13:00:16;38.70;99.90
14061;DHT22;7105;43.616;1.434;2023-08-24T13:02:42;38.70;99.90
14061;DHT22;7105;43.616;1.434;2023-08-24T13:05:08;39.00;99.90
14061;DHT22;7105;43.616;1.434;2023-08-24T13:07:34;38.60;99.90
14061;DHT22;7105;43.616;1.434;2023-08-24T13:09:59;38.80;99.90
14061;DHT22;7105;43.616;1.434;2023-08-24T13:12:25;38.90;99.90
14061;DHT22;7105;43.616;1.434;2023-08-24T13:14:51;38.80;99.90
14061;DHT22;7105;43.616;1.434;2023-08-24T13:17:17;38.80;99.90
14061;DHT22;7105;43.616;1.434;2023-08-24T13:19:43;39.30;99.90
14061;DHT22;7105;43.616;1.434;2023-08-24T13:22:10;39.00;99.90
14061;DHT22;7105;43.616;1.434;2023-08-24T13:24:36;39.10;99.90
14061;DHT22;7105;43.616;1.434;2023-08-24T13:27:03;39.20;99.90
14061;DHT22;7105;43.616;1.434;2023-08-24T13:29:29;39.10;99.90
14061;DHT22;7105;43.616;1.434;2023-08-24T13:31:55;39.00;99.90
14061;DHT22;7105;43.616;1.434;2023-08-24T13:34:21;38.90;99.90
14061;DHT22;7105;43.616;1.434;2023-08-24T13:36:46;38.60;99.90
14061;DHT22;7105;43.616;1.434;2023-08-24T13:39:12;38.70;99.90
14061;DHT22;7105;43.616;1.434;2023-08-24T13:41:37;39.00;99.90
14061;DHT22;7105;43.616;1.434;2023-08-24T13:44:03;39.00;99.90
14061;DHT22;7105;43.616;1.434;2023-08-24T13:46:29;39.10;99.90
14061;DHT22;7105;43.616;1.434;2023-08-24T13:48:55;39.20;99.90
14061;DHT22;7105;43.616;1.434;2023-08-24T13:51:20;39.00;99.90
14061;DHT22;7105;43.616;1.434;2023-08-24T13:53:47;38.90;99.90
14061;DHT22;7105;43.616;1.434;2023-08-24T13:56:13;39.00;99.90
14061;DHT22;7105;43.616;1.434;2023-08-24T13:58:39;39.40;99.90
14061;DHT22;7105;43.616;1.434;2023-08-24T14:01:05;39.90;99.90
14061;DHT22;7105;43.616;1.434;2023-08-24T14:03:31;40.60;99.90
14061;DHT22;7105;43.616;1.434;2023-08-24T14:05:57;41.40;99.90
14061;DHT22;7105;43.616;1.434;2023-08-24T14:08:23;41.00;99.90
14061;DHT22;7105;43.616;1.434;2023-08-24T14:10:49;41.10;99.90
14061;DHT22;7105;43.616;1.434;2023-08-24T14:13:15;40.60;99.90
14061;DHT22;7105;43.616;1.434;2023-08-24T14:15:42;40.70;99.90
14061;DHT22;7105;43.616;1.434;2023-08-24T14:18:07;40.90;99.90
14061;DHT22;7105;43.616;1.434;2023-08-24T14:20:33;40.70;99.90
14061;DHT22;7105;43.616;1.434;2023-08-24T14:22:59;41.40;99.90
14061;DHT22;7105;43.616;1.434;2023-08-24T14:25:24;41.10;99.90
14061;DHT22;7105;43.616;1.434;2023-08-24T14:27:50;41.20;99.90
14061;DHT22;7105;43.616;1.434;2023-08-24T14:30:16;41.10;99.90
14061;DHT22;7105;43.616;1.434;2023-08-24T14:32:41;40.90;99.90
14061;DHT22;7105;43.616;1.434;2023-08-24T14:35:08;40.90;99.90
14061;DHT22;7105;43.616;1.434;2023-08-24T14:37:33;40.90;99.90
14061;DHT22;7105;43.616;1.434;2023-08-24T14:39:59;41.20;99.90
14061;DHT22;7105;43.616;1.434;2023-08-24T14:42:25;41.90;99.90
14061;DHT22;7105;43.616;1.434;2023-08-24T14:44:50;41.10;99.90
14061;DHT22;7105;43.616;1.434;2023-08-24T14:47:16;41.00;99.90
14061;DHT22;7105;43.616;1.434;2023-08-24T14:49:42;40.80;99.90
14061;DHT22;7105;43.616;1.434;2023-08-24T14:52:07;41.00;99.90
14061;DHT22;7105;43.616;1.434;2023-08-24T14:54:33;41.00;99.90
14061;DHT22;7105;43.616;1.434;2023-08-24T14:56:59;41.40;99.90
14061;DHT22;7105;43.616;1.434;2023-08-24T14:59:25;41.20;99.90
14061;DHT22;7105;43.616;1.434;2023-08-24T15:01:51;41.00;99.90
14061;DHT22;7105;43.616;1.434;2023-08-24T15:04:18;41.00;99.90
14061;DHT22;7105;43.616;1.434;2023-08-24T15:06:44;41.40;99.90
14061;DHT22;7105;43.616;1.434;2023-08-24T15:09:09;41.70;99.90
14061;DHT22;7105;43.616;1.434;2023-08-24T15:11:36;41.60;99.90
14061;DHT22;7105;43.616;1.434;2023-08-24T15:14:02;41.70;99.90
14061;DHT22;7105;43.616;1.434;2023-08-24T15:16:27;41.80;99.90
14061;DHT22;7105;43.616;1.434;2023-08-24T15:18:53;41.60;99.90
14061;DHT22;7105;43.616;1.434;2023-08-24T15:21:19;41.90;99.90
14061;DHT22;7105;43.616;1.434;2023-08-24T15:23:44;42.10;99.90
14061;DHT22;7105;43.616;1.434;2023-08-24T15:26:10;42.00;99.90
14061;DHT22;7105;43.616;1.434;2023-08-24T15:28:37;41.80;99.90
14061;DHT22;7105;43.616;1.434;2023-08-24T15:31:22;41.60;99.90
14061;DHT22;7105;43.616;1.434;2023-08-24T15:33:49;41.70;99.90
14061;DHT22;7105;43.616;1.434;2023-08-24T15:36:15;41.60;99.90
14061;DHT22;7105;43.616;1.434;2023-08-24T15:38:41;41.70;99.90
14061;DHT22;7105;43.616;1.434;2023-08-24T15:41:06;41.60;99.90
14061;DHT22;7105;43.616;1.434;2023-08-24T15:43:32;41.50;99.90
14061;DHT22;7105;43.616;1.434;2023-08-24T15:45:58;41.70;99.90
14061;DHT22;7105;43.616;1.434;2023-08-24T15:48:24;41.20;99.90
14061;DHT22;7105;43.616;1.434;2023-08-24T15:50:50;41.30;99.90
14061;DHT22;7105;43.616;1.434;2023-08-24T15:53:15;41.40;99.90
14061;DHT22;7105;43.616;1.434;2023-08-24T15:55:41;41.50;99.90
14061;DHT22;7105;43.616;1.434;2023-08-24T15:58:07;41.40;99.90
14061;DHT22;7105;43.616;1.434;2023-08-24T16:00:33;41.20;99.90
14061;DHT22;7105;43.616;1.434;2023-08-24T16:02:59;41.00;99.90